createdAt,value
2023-05-23T00:00:52.208Z,16.05
2023-05-23T00:03:23.346Z,20.25
2023-05-23T00:05:51.382Z,18.77
2023-05-23T00:08:21.655Z,17.67
2023-05-23T00:10:51.226Z,20.75
2023-05-23T00:13:25.785Z,19.35
2023-05-23T00:15:56.205Z,15.93
2023-05-23T00:18:25.617Z,19.50
2023-05-23T00:20:54.288Z,19.38
2023-05-23T00:23:27.203Z,16.77
2023-05-23T00:25:54.443Z,18.60
2023-05-23T00:28:23.678Z,16.73
2023-05-23T00:30:53.292Z,16.58
2023-05-23T00:33:23.944Z,19.52
2023-05-23T00:35:51.041Z,16.65
2023-05-23T00:38:21.255Z,13.68
2023-05-23T00:40:48.528Z,18.35
2023-05-23T00:43:16.268Z,17.90
2023-05-23T00:45:43.327Z,16.48
2023-05-23T00:48:12.377Z,14.77
2023-05-23T00:50:39.293Z,16.80
2023-05-23T00:53:06.550Z,17.67
2023-05-23T00:55:34.368Z,14.82
2023-05-23T00:58:09.162Z,16.48
2023-05-23T01:00:38.769Z,14.10
2023-05-23T01:03:05.815Z,17.27
2023-05-23T01:05:34.943Z,15.93
2023-05-23T01:08:03.466Z,14.68
2023-05-23T01:10:32.764Z,16.65
2023-05-23T01:13:22.414Z,15.32
2023-05-23T01:16:17.341Z,15.80
2023-05-23T01:18:55.059Z,15.13
2023-05-23T01:21:24.412Z,11.43
2023-05-23T01:24:06.987Z,13.90
2023-05-23T01:26:55.635Z,13.82
2023-05-23T01:29:27.951Z,14.60
2023-05-23T01:31:58.292Z,14.40
2023-05-23T01:36:59.213Z,15.57
2023-05-23T01:39:26.098Z,14.45
2023-05-23T01:41:54.367Z,16.73
2023-05-23T01:44:22.216Z,17.48
2023-05-23T01:46:49.365Z,15.50
2023-05-23T01:49:19.222Z,15.80
2023-05-23T01:51:51.196Z,18.17
2023-05-23T01:54:20.167Z,15.73
2023-05-23T01:56:51.786Z,15.30
2023-05-23T01:59:18.777Z,16.55
2023-05-23T02:01:46.194Z,14.57
2023-05-23T02:04:14.027Z,17.52
2023-05-23T02:06:41.740Z,15.48
2023-05-23T02:09:09.759Z,14.27
2023-05-23T02:11:36.673Z,14.07
2023-05-23T02:14:06.312Z,15.70
2023-05-23T02:16:33.423Z,15.40
2023-05-23T02:19:02.320Z,13.57
2023-05-23T02:21:34.221Z,15.40
2023-05-23T02:24:02.686Z,14.43
2023-05-23T02:26:30.013Z,16.77
2023-05-23T02:29:00.909Z,17.50
2023-05-23T02:31:30.198Z,14.35
2023-05-23T02:33:57.258Z,11.88
2023-05-23T02:36:24.229Z,15.82
2023-05-23T02:38:54.376Z,13.25
2023-05-23T02:41:23.960Z,15.80
2023-05-23T02:43:55.867Z,14.43
2023-05-23T02:46:23.057Z,11.75
2023-05-23T02:48:52.529Z,11.48
2023-05-23T02:51:22.358Z,16.30
2023-05-23T02:53:52.444Z,11.85
2023-05-23T02:56:22.766Z,12.63
2023-05-23T02:58:59.525Z,13.10
2023-05-23T03:01:26.766Z,17.73
2023-05-23T03:03:53.885Z,12.45
2023-05-23T03:06:22.478Z,16.05
2023-05-23T03:11:33.434Z,16.13
2023-05-23T03:14:04.833Z,15.73
2023-05-23T03:16:33.384Z,17.80
2023-05-23T03:19:04.920Z,15.75
2023-05-23T03:21:35.411Z,15.07
2023-05-23T03:26:29.329Z,16.48
2023-05-23T03:28:56.460Z,15.15
2023-05-23T03:31:29.751Z,13.30
2023-05-23T03:33:59.663Z,13.48
2023-05-23T03:36:36.361Z,14.85
2023-05-23T03:39:11.043Z,14.35
2023-05-23T03:41:51.940Z,17.50
2023-05-23T03:44:27.891Z,14.43
2023-05-23T03:46:54.879Z,14.95
2023-05-23T03:49:25.352Z,15.27
2023-05-23T03:51:52.375Z,15.50
2023-05-23T03:54:27.069Z,14.27
2023-05-23T03:56:54.201Z,11.35
2023-05-23T03:59:26.193Z,12.57
2023-05-23T04:01:59.223Z,16.38
2023-05-23T04:04:28.816Z,13.40
2023-05-23T04:07:02.129Z,13.05
2023-05-23T04:09:32.995Z,11.80
2023-05-23T04:12:18.839Z,11.57
2023-05-23T04:14:48.643Z,14.52
2023-05-23T04:17:15.454Z,11.00
2023-05-23T04:19:42.288Z,11.15
2023-05-23T04:22:09.208Z,12.00
2023-05-23T04:24:35.959Z,12.23
2023-05-23T04:27:02.854Z,14.70
2023-05-23T04:29:31.718Z,13.23
2023-05-23T04:31:58.725Z,12.18
2023-05-23T04:34:26.318Z,9.07
2023-05-23T04:36:54.796Z,14.27
2023-05-23T04:39:21.582Z,12.73
2023-05-23T04:41:48.403Z,14.52
2023-05-23T04:44:16.123Z,13.57
2023-05-23T04:46:45.634Z,13.65
2023-05-23T04:49:13.080Z,15.75
2023-05-23T04:51:40.015Z,13.60
2023-05-23T04:54:06.849Z,10.63
2023-05-23T04:56:34.131Z,10.60
2023-05-23T04:59:03.438Z,13.52
2023-05-23T05:01:31.466Z,10.65
2023-05-23T05:03:58.589Z,11.07
2023-05-23T05:06:25.784Z,17.45
2023-05-23T05:08:53.137Z,13.75
2023-05-23T05:11:20.042Z,8.38
2023-05-23T05:13:46.940Z,13.00
2023-05-23T05:16:13.748Z,13.35
2023-05-23T05:18:41.018Z,8.05
2023-05-23T05:21:08.251Z,11.07
2023-05-23T05:23:36.328Z,10.23
2023-05-23T05:26:03.389Z,7.40
2023-05-23T05:28:30.273Z,16.00
2023-05-23T05:30:57.910Z,10.07
2023-05-23T05:33:26.003Z,12.07
2023-05-23T05:35:53.133Z,12.25
2023-05-23T05:38:20.260Z,15.27
2023-05-23T05:40:47.111Z,10.43
2023-05-23T05:43:14.033Z,10.80
2023-05-23T05:45:42.849Z,14.63
2023-05-23T05:48:10.038Z,11.98
2023-05-23T05:50:36.983Z,14.05
2023-05-23T05:53:08.178Z,8.30
2023-05-23T05:55:35.061Z,14.82
2023-05-23T05:58:01.789Z,13.60
2023-05-23T06:00:29.095Z,15.93
2023-05-23T06:02:58.113Z,11.18
2023-05-23T06:05:25.362Z,9.73
2023-05-23T06:07:54.307Z,12.10
2023-05-23T06:10:21.321Z,9.88
2023-05-23T06:12:51.461Z,9.10
2023-05-23T06:17:45.668Z,13.95
2023-05-23T06:20:12.838Z,13.40
2023-05-23T06:22:40.053Z,12.32
2023-05-23T06:25:07.505Z,17.42
2023-05-23T06:27:34.538Z,12.90
2023-05-23T06:30:01.849Z,13.80
2023-05-23T06:32:28.611Z,14.85
2023-05-23T06:34:55.425Z,13.95
2023-05-23T06:37:22.652Z,12.90
2023-05-23T06:39:49.515Z,19.67
2023-05-23T06:42:16.597Z,14.63
2023-05-23T06:44:43.537Z,14.63
2023-05-23T06:47:10.413Z,17.05
2023-05-23T06:49:37.157Z,15.38
2023-05-23T06:52:04.116Z,16.75
2023-05-23T06:54:31.017Z,15.80
2023-05-23T06:56:57.879Z,15.82
2023-05-23T06:59:25.044Z,17.52
2023-05-23T07:01:51.837Z,15.32
2023-05-23T07:04:18.766Z,16.15
2023-05-23T07:06:45.635Z,16.50
2023-05-23T07:09:13.534Z,17.77
2023-05-23T07:11:41.163Z,13.27
2023-05-23T07:14:08.050Z,14.75
2023-05-23T07:16:35.108Z,16.25
2023-05-23T07:19:03.144Z,19.25
2023-05-23T07:21:30.032Z,18.67
2023-05-23T07:23:57.254Z,17.25
2023-05-23T07:26:24.194Z,14.18
2023-05-23T07:28:51.422Z,15.18
2023-05-23T07:31:18.567Z,16.58
2023-05-23T07:33:45.764Z,17.45
2023-05-23T07:36:12.845Z,16.92
2023-05-23T07:38:39.572Z,17.40
2023-05-23T07:41:11.425Z,10.93
2023-05-23T07:43:39.453Z,18.83
2023-05-23T07:46:07.000Z,15.45
2023-05-23T07:48:39.291Z,16.88
2023-05-23T07:51:08.653Z,17.70
2023-05-23T07:53:39.971Z,15.00
2023-05-23T07:56:07.575Z,16.40
2023-05-23T07:58:34.411Z,13.65
2023-05-23T08:01:03.758Z,14.10
2023-05-23T08:03:30.731Z,16.08
2023-05-23T08:05:57.514Z,12.15
2023-05-23T08:08:24.395Z,15.13
2023-05-23T08:10:51.612Z,16.20
2023-05-23T08:13:18.539Z,19.20
2023-05-23T08:15:45.563Z,17.08
2023-05-23T08:18:23.205Z,12.80
2023-05-23T08:20:49.986Z,13.02
2023-05-23T08:23:18.087Z,13.73
2023-05-23T08:25:44.859Z,13.43
2023-05-23T08:28:11.925Z,15.75
2023-05-23T08:30:38.954Z,12.40
2023-05-23T08:33:07.226Z,13.02
2023-05-23T08:35:37.172Z,14.00
2023-05-23T08:38:07.863Z,12.48
2023-05-23T08:40:36.967Z,14.52
2023-05-23T08:43:05.930Z,11.07
2023-05-23T08:45:36.704Z,11.43
2023-05-23T08:48:08.695Z,14.10
2023-05-23T08:50:37.956Z,13.20
2023-05-23T08:53:05.204Z,12.25
2023-05-23T08:55:33.028Z,11.77
2023-05-23T08:58:03.726Z,11.38
2023-05-23T09:00:30.822Z,12.15
2023-05-23T09:02:59.192Z,12.27
2023-05-23T09:05:27.437Z,17.55
2023-05-23T09:07:54.992Z,12.15
2023-05-23T09:10:26.903Z,10.98
2023-05-23T09:12:53.800Z,11.88
2023-05-23T09:15:22.386Z,12.57
2023-05-23T09:17:50.501Z,8.75
2023-05-23T09:20:18.499Z,15.45
2023-05-23T09:22:49.118Z,11.48
2023-05-23T09:25:18.910Z,9.63
2023-05-23T09:27:48.134Z,10.98
2023-05-23T09:30:15.516Z,7.32
2023-05-23T09:32:42.780Z,9.45
2023-05-23T09:35:15.009Z,9.82
2023-05-23T09:37:46.021Z,8.85
2023-05-23T09:40:14.902Z,7.35
2023-05-23T09:42:48.494Z,10.73
2023-05-23T09:45:16.875Z,13.95
2023-05-23T09:47:54.707Z,15.23
2023-05-23T09:50:22.508Z,9.90
2023-05-23T09:52:51.005Z,11.73
2023-05-23T09:55:18.012Z,7.18
2023-05-23T09:57:45.927Z,14.02
2023-05-23T10:00:15.928Z,6.90
2023-05-23T10:02:54.954Z,11.38
2023-05-23T10:05:44.991Z,8.73
2023-05-23T10:08:23.026Z,10.10
2023-05-23T10:11:31.709Z,13.98
2023-05-23T10:14:10.994Z,8.15
2023-05-23T10:17:08.443Z,8.63
2023-05-23T10:19:56.683Z,11.73
2023-05-23T10:22:32.180Z,10.82
2023-05-23T10:25:04.413Z,7.57
2023-05-23T10:27:34.840Z,9.82
2023-05-23T10:30:04.930Z,12.60
2023-05-23T10:32:32.998Z,11.40
2023-05-23T10:35:29.581Z,10.73
2023-05-23T10:38:34.392Z,8.13
2023-05-23T10:41:27.244Z,7.32
2023-05-23T10:44:26.729Z,7.45
2023-05-23T10:47:01.462Z,9.45
2023-05-23T10:49:49.042Z,6.78
2023-05-23T10:52:36.391Z,9.32
2023-05-23T10:55:12.684Z,8.38
2023-05-23T10:57:39.618Z,8.57
2023-05-23T11:00:16.932Z,6.18
2023-05-23T11:03:11.789Z,9.85
2023-05-23T11:05:52.620Z,8.63
2023-05-23T11:08:24.082Z,9.38
2023-05-23T11:11:06.292Z,7.45
2023-05-23T11:14:03.074Z,17.07
2023-05-23T11:16:46.963Z,9.27
2023-05-23T11:19:20.378Z,11.55
2023-05-23T11:21:56.625Z,8.90
2023-05-23T11:24:52.847Z,14.75
2023-05-23T11:27:46.318Z,11.77
2023-05-23T11:30:17.983Z,8.93
2023-05-23T11:32:53.118Z,7.70
2023-05-23T11:35:21.665Z,11.75
2023-05-23T11:37:49.592Z,11.93
2023-05-23T11:40:37.130Z,10.52
2023-05-23T11:43:06.346Z,11.07
2023-05-23T11:45:34.720Z,9.40
2023-05-23T11:48:15.165Z,7.35
2023-05-23T11:51:18.232Z,8.77
2023-05-23T11:53:47.216Z,11.25
2023-05-23T11:56:17.983Z,9.57
2023-05-23T11:58:47.787Z,8.70
2023-05-23T12:03:51.775Z,11.68
2023-05-23T12:06:26.092Z,7.78
2023-05-23T12:08:54.662Z,7.90
2023-05-23T12:11:23.879Z,9.70
2023-05-23T12:13:56.555Z,7.25
2023-05-23T12:16:27.402Z,16.45
2023-05-23T12:18:54.274Z,8.88
2023-05-23T12:21:25.715Z,6.22
2023-05-23T12:23:55.415Z,7.45
2023-05-23T12:26:25.067Z,9.75
2023-05-23T12:28:54.648Z,8.00
2023-05-23T12:31:24.969Z,9.32
2023-05-23T12:33:55.488Z,9.70
2023-05-23T12:36:26.426Z,8.57
2023-05-23T12:38:55.074Z,10.80
2023-05-23T12:41:23.400Z,12.98
2023-05-23T12:43:52.064Z,9.20
2023-05-23T12:46:26.582Z,13.02
2023-05-23T12:48:54.303Z,5.63
2023-05-23T12:51:21.744Z,7.05
2023-05-23T12:53:48.797Z,7.57
2023-05-23T12:56:15.546Z,9.43
2023-05-23T12:58:44.525Z,12.35
2023-05-23T13:01:11.496Z,12.40
2023-05-23T13:03:38.762Z,11.63
2023-05-23T13:06:06.794Z,9.15
2023-05-23T13:08:34.805Z,10.77
2023-05-23T13:11:01.680Z,10.25
2023-05-23T13:13:28.495Z,9.68
2023-05-23T13:15:56.646Z,9.00
2023-05-23T13:18:23.699Z,7.38
2023-05-23T13:20:50.458Z,10.32
2023-05-23T13:23:17.356Z,12.93
2023-05-23T13:25:44.574Z,12.00
2023-05-23T13:28:11.742Z,8.23
2023-05-23T13:30:39.003Z,9.63
2023-05-23T13:33:05.923Z,11.60
2023-05-23T13:35:33.708Z,11.48
2023-05-23T13:38:00.924Z,9.82
2023-05-23T13:40:27.652Z,9.20
2023-05-23T13:42:54.601Z,6.78
2023-05-23T13:45:23.411Z,8.63
2023-05-23T13:47:50.260Z,9.25
2023-05-23T13:50:17.654Z,10.40
2023-05-23T13:52:48.308Z,8.57
2023-05-23T13:55:16.145Z,11.77
2023-05-23T13:57:43.020Z,11.00
2023-05-23T14:00:10.497Z,12.02
2023-05-23T14:02:37.249Z,17.70
2023-05-23T14:05:05.039Z,7.63
2023-05-23T14:07:32.320Z,12.10
2023-05-23T14:09:59.782Z,10.13
2023-05-23T14:12:27.117Z,13.82
2023-05-23T14:14:53.817Z,9.68
2023-05-23T14:17:20.659Z,9.43
2023-05-23T14:19:47.772Z,9.57
2023-05-23T14:22:14.668Z,8.48
2023-05-23T14:24:41.422Z,9.95
2023-05-23T14:27:10.841Z,10.15
2023-05-23T14:32:05.395Z,10.57
2023-05-23T14:34:32.290Z,14.30
2023-05-23T14:36:59.011Z,9.43
2023-05-23T14:39:25.784Z,17.15
2023-05-23T14:41:52.721Z,9.75
2023-05-23T14:44:19.581Z,9.77
2023-05-23T14:46:50.284Z,10.73
2023-05-23T14:49:20.151Z,11.60
2023-05-23T14:54:19.332Z,10.50
2023-05-23T14:56:48.092Z,10.25
2023-05-23T14:59:17.885Z,10.60
2023-05-23T15:01:46.332Z,14.77
2023-05-23T15:04:13.961Z,10.05
2023-05-23T15:06:42.858Z,8.75
2023-05-23T15:09:10.708Z,8.05
2023-05-23T15:11:38.938Z,7.10
2023-05-23T15:14:06.315Z,10.35
2023-05-23T15:16:37.121Z,10.35
2023-05-23T15:19:04.608Z,9.10
2023-05-23T15:21:32.284Z,11.40
2023-05-23T15:23:59.791Z,10.90
2023-05-23T15:26:27.339Z,11.45
2023-05-23T15:28:54.372Z,8.68
2023-05-23T15:31:21.550Z,10.98
2023-05-23T15:33:49.360Z,8.45
2023-05-23T15:36:16.494Z,11.30
2023-05-23T15:38:43.860Z,13.55
2023-05-23T15:41:11.710Z,12.82
2023-05-23T15:43:38.610Z,12.88
2023-05-23T15:46:05.741Z,14.43
2023-05-23T15:48:32.938Z,15.52
2023-05-23T15:51:01.964Z,10.40
2023-05-23T15:53:32.222Z,13.77
2023-05-23T15:56:00.302Z,10.20
2023-05-23T15:58:26.995Z,11.80
2023-05-23T16:00:55.400Z,8.73
2023-05-23T16:03:25.383Z,8.65
2023-05-23T16:05:52.645Z,9.90
2023-05-23T16:08:19.337Z,8.05
2023-05-23T16:10:46.570Z,16.88
2023-05-23T16:13:13.678Z,11.68
2023-05-23T16:15:41.222Z,12.70
2023-05-23T16:18:08.085Z,9.50
2023-05-23T16:20:35.346Z,10.25
2023-05-23T16:23:04.440Z,9.43
2023-05-23T16:25:31.286Z,10.50
2023-05-23T16:27:58.151Z,8.52
2023-05-23T16:30:27.826Z,11.73
2023-05-23T16:32:55.005Z,11.55
2023-05-23T16:35:23.737Z,11.13
2023-05-23T16:37:52.276Z,8.18
2023-05-23T16:40:19.796Z,13.48
2023-05-23T16:42:46.612Z,14.32
2023-05-23T16:45:13.505Z,9.95
2023-05-23T16:47:40.369Z,9.60
2023-05-23T16:50:08.713Z,11.05
2023-05-23T16:52:35.604Z,10.05
2023-05-23T16:55:03.851Z,9.73
2023-05-23T16:57:32.164Z,12.02
2023-05-23T16:59:59.140Z,11.02
2023-05-23T17:02:25.954Z,11.18
2023-05-23T17:04:53.126Z,9.48
2023-05-23T17:07:19.983Z,10.20
2023-05-23T17:09:46.734Z,8.95
2023-05-23T17:12:13.800Z,10.40
2023-05-23T17:14:40.558Z,12.32
2023-05-23T17:17:07.308Z,9.52
2023-05-23T17:19:36.149Z,9.60
2023-05-23T17:22:06.083Z,10.57
2023-05-23T17:24:34.449Z,10.18
2023-05-23T17:27:05.204Z,13.98
2023-05-23T17:29:33.112Z,11.27
2023-05-23T17:32:00.222Z,11.98
2023-05-23T17:34:26.985Z,10.60
2023-05-23T17:36:53.729Z,9.93
2023-05-23T17:39:21.996Z,11.52
2023-05-23T17:41:48.726Z,13.80
2023-05-23T17:44:15.640Z,14.23
2023-05-23T17:46:42.619Z,14.90
2023-05-23T17:49:09.605Z,12.93
2023-05-23T17:51:36.525Z,22.55
2023-05-23T17:54:04.319Z,18.60
2023-05-23T17:56:31.114Z,21.35
2023-05-23T17:59:01.444Z,17.27
2023-05-23T18:01:28.635Z,22.00
2023-05-23T18:03:56.205Z,19.85
2023-05-23T18:06:22.975Z,21.13
2023-05-23T18:08:49.793Z,21.25
2023-05-23T18:11:18.416Z,21.42
2023-05-23T18:13:45.146Z,28.20
2023-05-23T18:16:11.973Z,31.70
2023-05-23T18:18:40.184Z,32.47
2023-05-23T18:21:08.347Z,32.53
2023-05-23T18:23:35.786Z,32.25
2023-05-23T18:26:02.880Z,33.70
2023-05-23T18:28:29.700Z,21.35
2023-05-23T18:30:56.630Z,22.75
2023-05-23T18:33:23.448Z,23.30
2023-05-23T18:35:50.897Z,19.45
2023-05-23T18:38:19.358Z,26.48
2023-05-23T18:40:47.278Z,22.83
2023-05-23T18:43:17.662Z,20.60
2023-05-23T18:45:44.729Z,17.50
2023-05-23T18:48:11.534Z,20.17
2023-05-23T18:50:38.962Z,19.83
2023-05-23T18:53:05.979Z,16.63
2023-05-23T18:55:33.056Z,21.40
2023-05-23T18:58:01.038Z,16.52
2023-05-23T19:00:28.027Z,21.63
2023-05-23T19:02:54.965Z,19.23
2023-05-23T19:05:21.833Z,18.15
2023-05-23T19:07:48.649Z,17.42
2023-05-23T19:10:15.539Z,24.25
2023-05-23T19:12:42.277Z,28.05
2023-05-23T19:15:10.694Z,24.60
2023-05-23T19:20:05.360Z,29.20
2023-05-23T19:22:50.314Z,22.20
2023-05-23T19:25:18.146Z,28.77
2023-05-23T19:27:45.067Z,27.30
2023-05-23T19:30:12.790Z,23.73
2023-05-23T19:32:39.719Z,25.08
2023-05-23T19:35:09.329Z,24.73
2023-05-23T19:37:36.097Z,30.58
2023-05-23T19:40:03.277Z,29.35
2023-05-23T19:42:29.991Z,28.92
2023-05-23T19:44:57.553Z,28.60
2023-05-23T19:47:24.594Z,26.70
2023-05-23T19:49:51.316Z,27.70
2023-05-23T19:52:19.404Z,28.55
2023-05-23T19:54:46.194Z,27.73
2023-05-23T19:57:14.020Z,27.48
2023-05-23T19:59:41.181Z,26.10
2023-05-23T20:02:07.923Z,27.17
2023-05-23T20:04:34.963Z,27.65
2023-05-23T20:07:02.017Z,26.70
2023-05-23T20:09:28.809Z,26.77
2023-05-23T20:11:55.617Z,26.60
2023-05-23T20:14:22.314Z,25.70
2023-05-23T20:16:49.044Z,27.17
2023-05-23T20:19:16.021Z,26.25
2023-05-23T20:21:42.994Z,31.27
2023-05-23T20:24:09.767Z,22.23
2023-05-23T20:26:36.517Z,28.42
2023-05-23T20:29:03.605Z,25.30
2023-05-23T20:31:30.599Z,23.20
2023-05-23T20:33:57.382Z,25.67
2023-05-23T20:36:25.002Z,25.15
2023-05-23T20:38:53.613Z,23.73
2023-05-23T20:41:23.466Z,22.00
2023-05-23T20:43:50.210Z,21.20
2023-05-23T20:46:17.537Z,21.23
2023-05-23T20:48:44.322Z,27.70
2023-05-23T20:51:11.977Z,22.45
2023-05-23T20:53:39.756Z,24.13
2023-05-23T20:56:10.243Z,21.83
2023-05-23T20:58:38.021Z,21.45
2023-05-23T21:01:05.120Z,23.55
2023-05-23T21:03:32.224Z,25.27
2023-05-23T21:05:58.995Z,25.95
2023-05-23T21:08:25.937Z,22.05
2023-05-23T21:10:54.864Z,25.00
2023-05-23T21:13:22.093Z,27.27
2023-05-23T21:15:51.827Z,21.10
2023-05-23T21:18:18.651Z,23.85
2023-05-23T21:20:46.977Z,21.85
2023-05-23T21:23:14.029Z,22.15
2023-05-23T21:25:41.266Z,22.23
2023-05-23T21:28:11.078Z,20.85
2023-05-23T21:30:39.827Z,23.85
2023-05-23T21:33:06.831Z,21.33
2023-05-23T21:35:37.902Z,20.42
2023-05-23T21:38:05.885Z,17.95
2023-05-23T21:44:15.824Z,19.95
2023-05-23T21:49:32.618Z,22.58
2023-05-23T21:51:59.687Z,17.85
2023-05-23T21:54:28.627Z,19.63
2023-05-23T21:57:49.471Z,19.13
2023-05-23T22:04:22.228Z,23.60
2023-05-23T22:07:39.143Z,21.65
2023-05-23T22:10:39.357Z,21.85
2023-05-23T22:13:00.322Z,16.70
2023-05-23T22:13:26.732Z,24.92
2023-05-23T22:16:07.518Z,20.10
2023-05-23T22:21:40.515Z,18.50
2023-05-23T22:24:27.828Z,20.90
2023-05-23T22:27:39.958Z,23.33
2023-05-23T22:30:28.398Z,22.98
2023-05-23T22:36:16.572Z,22.23
2023-05-23T22:39:49.720Z,20.90
2023-05-23T22:42:21.217Z,19.00
2023-05-23T22:45:10.181Z,25.85
2023-05-23T22:48:34.904Z,24.63
2023-05-23T22:51:53.523Z,22.83
2023-05-23T22:54:38.601Z,23.27
2023-05-23T23:01:22.853Z,22.25
2023-05-23T23:03:25.717Z,20.65
2023-05-23T23:06:42.980Z,23.05
2023-05-23T23:09:53.222Z,22.60
2023-05-23T23:12:42.850Z,24.83
2023-05-23T23:15:52.945Z,24.08
2023-05-23T23:18:21.436Z,22.02
2023-05-23T23:20:58.554Z,22.50
2023-05-23T23:23:26.874Z,20.67
2023-05-23T23:25:57.269Z,22.05
2023-05-23T23:28:25.628Z,25.00
2023-05-23T23:30:52.773Z,21.67
2023-05-23T23:33:22.699Z,28.38
2023-05-23T23:35:54.294Z,22.33
2023-05-23T23:38:23.897Z,24.25
2023-05-23T23:40:50.824Z,23.20
2023-05-23T23:43:19.770Z,24.15
2023-05-23T23:45:46.711Z,22.98
2023-05-23T23:48:14.282Z,22.35
2023-05-23T23:50:41.530Z,24.95
2023-05-23T23:53:15.528Z,25.10
2023-05-23T23:55:47.016Z,26.60
2023-05-23T23:58:14.296Z,30.05
